sensor_id;sensor_type;location;lat;lon;timestamp;P1;durP1;ratioP1;P2;durP2;ratioP2
4553;SDS011;2289;48.316;15.174;2023-04-24T00:01:02;3.03;;;2.27;;
4553;SDS011;2289;48.316;15.174;2023-04-24T00:03:31;3.00;;;2.80;;
4553;SDS011;2289;48.316;15.174;2023-04-24T00:06:03;3.00;;;2.70;;
4553;SDS011;2289;48.316;15.174;2023-04-24T00:08:33;5.63;;;2.53;;
4553;SDS011;2289;48.316;15.174;2023-04-24T00:11:03;3.43;;;2.40;;
4553;SDS011;2289;48.316;15.174;2023-04-24T00:13:33;4.30;;;2.80;;
4553;SDS011;2289;48.316;15.174;2023-04-24T00:16:02;3.53;;;2.63;;
4553;SDS011;2289;48.316;15.174;2023-04-24T00:18:32;2.60;;;2.40;;
4553;SDS011;2289;48.316;15.174;2023-04-24T00:21:00;2.53;;;2.27;;
4553;SDS011;2289;48.316;15.174;2023-04-24T00:23:29;3.30;;;2.80;;
4553;SDS011;2289;48.316;15.174;2023-04-24T00:25:58;4.37;;;2.80;;
4553;SDS011;2289;48.316;15.174;2023-04-24T00:28:27;4.17;;;3.77;;
4553;SDS011;2289;48.316;15.174;2023-04-24T00:30:57;4.17;;;3.77;;
4553;SDS011;2289;48.316;15.174;2023-04-24T00:33:26;3.80;;;3.50;;
4553;SDS011;2289;48.316;15.174;2023-04-24T00:35:54;2.80;;;2.50;;
4553;SDS011;2289;48.316;15.174;2023-04-24T00:38:24;5.10;;;2.90;;
4553;SDS011;2289;48.316;15.174;2023-04-24T00:40:52;3.53;;;3.23;;
4553;SDS011;2289;48.316;15.174;2023-04-24T00:43:22;3.30;;;3.00;;
4553;SDS011;2289;48.316;15.174;2023-04-24T00:45:51;3.60;;;2.30;;
4553;SDS011;2289;48.316;15.174;2023-04-24T00:48:21;4.43;;;3.17;;
4553;SDS011;2289;48.316;15.174;2023-04-24T00:50:52;8.00;;;3.70;;
4553;SDS011;2289;48.316;15.174;2023-04-24T00:53:20;3.20;;;2.90;;
4553;SDS011;2289;48.316;15.174;2023-04-24T00:55:49;4.43;;;3.10;;
4553;SDS011;2289;48.316;15.174;2023-04-24T00:58:18;3.83;;;3.50;;
4553;SDS011;2289;48.316;15.174;2023-04-24T01:00:48;3.87;;;3.30;;
4553;SDS011;2289;48.316;15.174;2023-04-24T01:03:19;3.20;;;2.90;;
4553;SDS011;2289;48.316;15.174;2023-04-24T01:05:50;2.67;;;2.47;;
4553;SDS011;2289;48.316;15.174;2023-04-24T01:08:19;3.50;;;2.90;;
4553;SDS011;2289;48.316;15.174;2023-04-24T01:10:52;2.70;;;2.20;;
4553;SDS011;2289;48.316;15.174;2023-04-24T01:13:21;3.30;;;2.70;;
4553;SDS011;2289;48.316;15.174;2023-04-24T01:15:50;3.60;;;2.90;;
4553;SDS011;2289;48.316;15.174;2023-04-24T01:18:18;5.63;;;4.70;;
4553;SDS011;2289;48.316;15.174;2023-04-24T01:20:50;6.33;;;5.40;;
4553;SDS011;2289;48.316;15.174;2023-04-24T01:23:20;16.77;;;11.47;;
4553;SDS011;2289;48.316;15.174;2023-04-24T01:25:49;13.57;;;10.77;;
4553;SDS011;2289;48.316;15.174;2023-04-24T01:28:18;10.57;;;9.07;;
4553;SDS011;2289;48.316;15.174;2023-04-24T01:30:47;9.87;;;6.80;;
4553;SDS011;2289;48.316;15.174;2023-04-24T01:33:20;5.50;;;4.93;;
4553;SDS011;2289;48.316;15.174;2023-04-24T01:35:49;4.57;;;4.10;;
4553;SDS011;2289;48.316;15.174;2023-04-24T01:38:18;3.80;;;2.97;;
4553;SDS011;2289;48.316;15.174;2023-04-24T01:40:48;4.70;;;3.40;;
4553;SDS011;2289;48.316;15.174;2023-04-24T01:43:18;3.77;;;3.20;;
4553;SDS011;2289;48.316;15.174;2023-04-24T01:45:47;3.13;;;2.90;;
4553;SDS011;2289;48.316;15.174;2023-04-24T01:48:15;3.60;;;3.33;;
4553;SDS011;2289;48.316;15.174;2023-04-24T01:50:44;3.60;;;2.83;;
4553;SDS011;2289;48.316;15.174;2023-04-24T01:53:13;3.23;;;2.93;;
4553;SDS011;2289;48.316;15.174;2023-04-24T01:55:41;4.50;;;3.83;;
4553;SDS011;2289;48.316;15.174;2023-04-24T01:58:12;4.83;;;3.40;;
4553;SDS011;2289;48.316;15.174;2023-04-24T02:00:41;4.73;;;4.27;;
4553;SDS011;2289;48.316;15.174;2023-04-24T02:03:09;21.53;;;13.67;;
4553;SDS011;2289;48.316;15.174;2023-04-24T02:05:38;27.60;;;16.03;;
4553;SDS011;2289;48.316;15.174;2023-04-24T02:08:07;28.33;;;17.67;;
4553;SDS011;2289;48.316;15.174;2023-04-24T02:10:36;26.13;;;17.90;;
4553;SDS011;2289;48.316;15.174;2023-04-24T02:13:04;11.77;;;8.60;;
4553;SDS011;2289;48.316;15.174;2023-04-24T02:15:34;5.27;;;4.70;;
4553;SDS011;2289;48.316;15.174;2023-04-24T02:18:03;9.60;;;3.50;;
4553;SDS011;2289;48.316;15.174;2023-04-24T02:20:34;5.30;;;4.80;;
4553;SDS011;2289;48.316;15.174;2023-04-24T02:23:03;6.03;;;5.17;;
4553;SDS011;2289;48.316;15.174;2023-04-24T02:25:32;19.53;;;9.50;;
4553;SDS011;2289;48.316;15.174;2023-04-24T02:28:01;16.47;;;8.40;;
4553;SDS011;2289;48.316;15.174;2023-04-24T02:30:30;10.13;;;8.97;;
4553;SDS011;2289;48.316;15.174;2023-04-24T02:33:00;22.60;;;16.77;;
4553;SDS011;2289;48.316;15.174;2023-04-24T02:35:30;14.60;;;8.80;;
4553;SDS011;2289;48.316;15.174;2023-04-24T02:37:58;6.00;;;5.40;;
4553;SDS011;2289;48.316;15.174;2023-04-24T02:40:27;4.83;;;3.67;;
4553;SDS011;2289;48.316;15.174;2023-04-24T02:42:56;4.77;;;3.40;;
4553;SDS011;2289;48.316;15.174;2023-04-24T02:45:24;5.37;;;3.90;;
4553;SDS011;2289;48.316;15.174;2023-04-24T02:47:53;4.10;;;3.73;;
4553;SDS011;2289;48.316;15.174;2023-04-24T02:50:23;4.90;;;4.40;;
4553;SDS011;2289;48.316;15.174;2023-04-24T02:52:52;7.40;;;4.13;;
4553;SDS011;2289;48.316;15.174;2023-04-24T02:55:21;5.40;;;4.07;;
4553;SDS011;2289;48.316;15.174;2023-04-24T02:57:50;8.23;;;4.37;;
4553;SDS011;2289;48.316;15.174;2023-04-24T03:00:19;5.67;;;4.37;;
4553;SDS011;2289;48.316;15.174;2023-04-24T03:02:48;5.47;;;3.97;;
4553;SDS011;2289;48.316;15.174;2023-04-24T03:05:16;9.00;;;7.87;;
4553;SDS011;2289;48.316;15.174;2023-04-24T03:07:46;24.83;;;18.13;;
4553;SDS011;2289;48.316;15.174;2023-04-24T03:10:15;20.53;;;11.73;;
4553;SDS011;2289;48.316;15.174;2023-04-24T03:12:44;8.90;;;5.00;;
4553;SDS011;2289;48.316;15.174;2023-04-24T03:15:12;9.33;;;6.10;;
4553;SDS011;2289;48.316;15.174;2023-04-24T03:17:43;5.70;;;4.93;;
4553;SDS011;2289;48.316;15.174;2023-04-24T03:20:12;12.00;;;4.53;;
4553;SDS011;2289;48.316;15.174;2023-04-24T03:22:41;6.37;;;5.10;;
4553;SDS011;2289;48.316;15.174;2023-04-24T03:25:12;5.80;;;4.70;;
4553;SDS011;2289;48.316;15.174;2023-04-24T03:27:40;6.07;;;4.57;;
4553;SDS011;2289;48.316;15.174;2023-04-24T03:30:10;8.90;;;6.83;;
4553;SDS011;2289;48.316;15.174;2023-04-24T03:32:39;7.23;;;5.37;;
4553;SDS011;2289;48.316;15.174;2023-04-24T03:35:08;6.40;;;4.50;;
4553;SDS011;2289;48.316;15.174;2023-04-24T03:37:38;11.40;;;5.53;;
4553;SDS011;2289;48.316;15.174;2023-04-24T03:40:07;9.33;;;4.17;;
4553;SDS011;2289;48.316;15.174;2023-04-24T03:42:38;8.87;;;6.57;;
4553;SDS011;2289;48.316;15.174;2023-04-24T03:45:07;23.00;;;11.70;;
4553;SDS011;2289;48.316;15.174;2023-04-24T03:47:37;18.23;;;12.30;;
4553;SDS011;2289;48.316;15.174;2023-04-24T03:50:09;16.90;;;9.90;;
4553;SDS011;2289;48.316;15.174;2023-04-24T03:52:38;13.07;;;7.60;;
4553;SDS011;2289;48.316;15.174;2023-04-24T03:55:07;9.67;;;8.03;;
4553;SDS011;2289;48.316;15.174;2023-04-24T03:57:41;8.17;;;6.23;;
4553;SDS011;2289;48.316;15.174;2023-04-24T04:00:10;14.53;;;7.27;;
4553;SDS011;2289;48.316;15.174;2023-04-24T04:02:40;11.97;;;9.23;;
4553;SDS011;2289;48.316;15.174;2023-04-24T04:05:09;25.17;;;17.07;;
4553;SDS011;2289;48.316;15.174;2023-04-24T04:07:38;21.30;;;16.70;;
4553;SDS011;2289;48.316;15.174;2023-04-24T04:10:07;19.47;;;15.47;;
4553;SDS011;2289;48.316;15.174;2023-04-24T04:12:36;11.43;;;8.00;;
4553;SDS011;2289;48.316;15.174;2023-04-24T04:15:07;10.27;;;7.00;;
4553;SDS011;2289;48.316;15.174;2023-04-24T04:17:36;7.40;;;5.77;;
4553;SDS011;2289;48.316;15.174;2023-04-24T04:20:05;6.60;;;5.37;;
4553;SDS011;2289;48.316;15.174;2023-04-24T04:22:36;15.00;;;6.73;;
4553;SDS011;2289;48.316;15.174;2023-04-24T04:25:07;11.33;;;8.83;;
4553;SDS011;2289;48.316;15.174;2023-04-24T04:27:37;10.83;;;9.50;;
4553;SDS011;2289;48.316;15.174;2023-04-24T04:30:08;10.63;;;9.50;;
4553;SDS011;2289;48.316;15.174;2023-04-24T04:32:37;9.33;;;8.43;;
4553;SDS011;2289;48.316;15.174;2023-04-24T04:35:06;11.33;;;7.80;;
4553;SDS011;2289;48.316;15.174;2023-04-24T04:37:34;8.53;;;7.60;;
4553;SDS011;2289;48.316;15.174;2023-04-24T04:40:04;21.93;;;14.70;;
4553;SDS011;2289;48.316;15.174;2023-04-24T04:42:34;17.40;;;14.03;;
4553;SDS011;2289;48.316;15.174;2023-04-24T04:45:09;13.03;;;9.47;;
4553;SDS011;2289;48.316;15.174;2023-04-24T04:47:38;13.23;;;11.87;;
4553;SDS011;2289;48.316;15.174;2023-04-24T04:50:08;9.73;;;8.60;;
4553;SDS011;2289;48.316;15.174;2023-04-24T04:52:38;9.60;;;7.37;;
4553;SDS011;2289;48.316;15.174;2023-04-24T04:55:07;11.50;;;6.87;;
4553;SDS011;2289;48.316;15.174;2023-04-24T04:57:36;8.30;;;5.67;;
4553;SDS011;2289;48.316;15.174;2023-04-24T05:00:05;7.73;;;4.70;;
4553;SDS011;2289;48.316;15.174;2023-04-24T05:02:38;11.70;;;4.60;;
4553;SDS011;2289;48.316;15.174;2023-04-24T05:05:08;6.67;;;5.50;;
4553;SDS011;2289;48.316;15.174;2023-04-24T05:07:38;7.70;;;6.90;;
4553;SDS011;2289;48.316;15.174;2023-04-24T05:10:07;8.00;;;7.20;;
4553;SDS011;2289;48.316;15.174;2023-04-24T05:12:37;7.07;;;6.37;;
4553;SDS011;2289;48.316;15.174;2023-04-24T05:15:06;7.13;;;5.57;;
4553;SDS011;2289;48.316;15.174;2023-04-24T05:17:35;6.23;;;5.63;;
4553;SDS011;2289;48.316;15.174;2023-04-24T05:20:06;6.07;;;5.03;;
4553;SDS011;2289;48.316;15.174;2023-04-24T05:22:36;6.67;;;5.10;;
4553;SDS011;2289;48.316;15.174;2023-04-24T05:25:05;8.00;;;5.53;;
4553;SDS011;2289;48.316;15.174;2023-04-24T05:27:34;8.43;;;6.37;;
4553;SDS011;2289;48.316;15.174;2023-04-24T05:30:03;10.20;;;7.40;;
4553;SDS011;2289;48.316;15.174;2023-04-24T05:32:35;19.30;;;14.30;;
4553;SDS011;2289;48.316;15.174;2023-04-24T05:35:05;11.30;;;7.83;;
4553;SDS011;2289;48.316;15.174;2023-04-24T05:37:35;9.27;;;8.30;;
4553;SDS011;2289;48.316;15.174;2023-04-24T05:40:04;11.43;;;8.00;;
4553;SDS011;2289;48.316;15.174;2023-04-24T05:42:33;12.63;;;6.50;;
4553;SDS011;2289;48.316;15.174;2023-04-24T05:45:02;13.23;;;6.07;;
4553;SDS011;2289;48.316;15.174;2023-04-24T05:47:31;6.70;;;5.97;;
4553;SDS011;2289;48.316;15.174;2023-04-24T05:50:00;6.90;;;5.70;;
4553;SDS011;2289;48.316;15.174;2023-04-24T05:52:31;7.57;;;6.27;;
4553;SDS011;2289;48.316;15.174;2023-04-24T05:54:59;13.47;;;8.97;;
4553;SDS011;2289;48.316;15.174;2023-04-24T05:57:28;8.50;;;7.07;;
4553;SDS011;2289;48.316;15.174;2023-04-24T05:59:57;10.57;;;9.57;;
4553;SDS011;2289;48.316;15.174;2023-04-24T06:02:26;12.23;;;8.27;;
4553;SDS011;2289;48.316;15.174;2023-04-24T06:04:59;8.60;;;7.60;;
4553;SDS011;2289;48.316;15.174;2023-04-24T06:07:28;7.03;;;6.27;;
4553;SDS011;2289;48.316;15.174;2023-04-24T06:09:58;6.77;;;6.07;;
4553;SDS011;2289;48.316;15.174;2023-04-24T06:12:27;6.90;;;6.03;;
4553;SDS011;2289;48.316;15.174;2023-04-24T06:14:56;9.77;;;7.70;;
4553;SDS011;2289;48.316;15.174;2023-04-24T06:17:25;7.80;;;7.00;;
4553;SDS011;2289;48.316;15.174;2023-04-24T06:19:54;8.70;;;6.57;;
4553;SDS011;2289;48.316;15.174;2023-04-24T06:22:22;7.43;;;6.73;;
4553;SDS011;2289;48.316;15.174;2023-04-24T06:24:51;8.13;;;6.47;;
4553;SDS011;2289;48.316;15.174;2023-04-24T06:27:22;7.57;;;6.83;;
4553;SDS011;2289;48.316;15.174;2023-04-24T06:29:50;6.83;;;6.17;;
4553;SDS011;2289;48.316;15.174;2023-04-24T06:32:21;6.60;;;6.00;;
4553;SDS011;2289;48.316;15.174;2023-04-24T06:34:51;5.97;;;5.37;;
4553;SDS011;2289;48.316;15.174;2023-04-24T06:37:20;5.53;;;5.03;;
4553;SDS011;2289;48.316;15.174;2023-04-24T06:39:55;9.90;;;8.90;;
4553;SDS011;2289;48.316;15.174;2023-04-24T06:42:25;8.73;;;7.90;;
4553;SDS011;2289;48.316;15.174;2023-04-24T06:44:54;8.97;;;7.90;;
4553;SDS011;2289;48.316;15.174;2023-04-24T06:47:23;15.10;;;11.60;;
4553;SDS011;2289;48.316;15.174;2023-04-24T06:49:52;14.93;;;12.30;;
4553;SDS011;2289;48.316;15.174;2023-04-24T06:52:21;12.70;;;11.40;;
4553;SDS011;2289;48.316;15.174;2023-04-24T06:54:50;13.13;;;11.00;;
4553;SDS011;2289;48.316;15.174;2023-04-24T06:57:19;12.80;;;10.90;;
4553;SDS011;2289;48.316;15.174;2023-04-24T06:59:49;7.97;;;7.17;;
4553;SDS011;2289;48.316;15.174;2023-04-24T07:02:18;10.13;;;9.13;;
4553;SDS011;2289;48.316;15.174;2023-04-24T07:04:47;34.50;;;25.67;;
4553;SDS011;2289;48.316;15.174;2023-04-24T07:07:16;21.00;;;16.17;;
4553;SDS011;2289;48.316;15.174;2023-04-24T07:09:46;24.10;;;17.00;;
4553;SDS011;2289;48.316;15.174;2023-04-24T07:12:15;6.30;;;5.60;;
4553;SDS011;2289;48.316;15.174;2023-04-24T07:14:47;7.63;;;6.90;;
4553;SDS011;2289;48.316;15.174;2023-04-24T07:17:17;9.40;;;8.10;;
4553;SDS011;2289;48.316;15.174;2023-04-24T07:19:46;10.10;;;8.17;;
4553;SDS011;2289;48.316;15.174;2023-04-24T07:22:14;9.73;;;7.90;;
4553;SDS011;2289;48.316;15.174;2023-04-24T07:24:43;8.37;;;5.07;;
4553;SDS011;2289;48.316;15.174;2023-04-24T07:27:13;5.70;;;5.20;;
4553;SDS011;2289;48.316;15.174;2023-04-24T07:29:42;6.00;;;3.30;;
4553;SDS011;2289;48.316;15.174;2023-04-24T07:32:11;7.33;;;3.30;;
4553;SDS011;2289;48.316;15.174;2023-04-24T07:34:42;1.43;;;1.33;;
4553;SDS011;2289;48.316;15.174;2023-04-24T07:37:11;6.73;;;4.93;;
4553;SDS011;2289;48.316;15.174;2023-04-24T07:39:40;4.83;;;4.33;;
4553;SDS011;2289;48.316;15.174;2023-04-24T07:42:09;9.50;;;6.70;;
4553;SDS011;2289;48.316;15.174;2023-04-24T07:44:38;1.70;;;1.60;;
4553;SDS011;2289;48.316;15.174;2023-04-24T07:47:07;4.67;;;3.43;;
4553;SDS011;2289;48.316;15.174;2023-04-24T07:49:36;1.30;;;1.20;;
4553;SDS011;2289;48.316;15.174;2023-04-24T07:52:06;4.37;;;2.97;;
4553;SDS011;2289;48.316;15.174;2023-04-24T07:54:35;3.27;;;2.30;;
4553;SDS011;2289;48.316;15.174;2023-04-24T07:57:04;6.03;;;5.40;;
4553;SDS011;2289;48.316;15.174;2023-04-24T07:59:34;2.63;;;2.43;;
4553;SDS011;2289;48.316;15.174;2023-04-24T08:02:03;5.13;;;4.10;;
4553;SDS011;2289;48.316;15.174;2023-04-24T08:04:33;12.10;;;6.60;;
4553;SDS011;2289;48.316;15.174;2023-04-24T08:07:02;25.77;;;16.40;;
4553;SDS011;2289;48.316;15.174;2023-04-24T08:09:32;9.33;;;5.70;;
4553;SDS011;2289;48.316;15.174;2023-04-24T08:12:01;10.50;;;1.73;;
4553;SDS011;2289;48.316;15.174;2023-04-24T08:14:29;3.17;;;1.87;;
4553;SDS011;2289;48.316;15.174;2023-04-24T08:16:58;5.20;;;2.03;;
4553;SDS011;2289;48.316;15.174;2023-04-24T08:19:28;3.43;;;2.63;;
4553;SDS011;2289;48.316;15.174;2023-04-24T08:21:58;2.70;;;1.70;;
4553;SDS011;2289;48.316;15.174;2023-04-24T08:24:28;1.70;;;1.53;;
4553;SDS011;2289;48.316;15.174;2023-04-24T08:26:58;2.13;;;1.83;;
4553;SDS011;2289;48.316;15.174;2023-04-24T08:29:28;1.60;;;1.50;;
4553;SDS011;2289;48.316;15.174;2023-04-24T08:31:56;2.10;;;1.30;;
4553;SDS011;2289;48.316;15.174;2023-04-24T08:34:25;2.03;;;1.93;;
4553;SDS011;2289;48.316;15.174;2023-04-24T08:36:54;1.17;;;1.10;;
4553;SDS011;2289;48.316;15.174;2023-04-24T08:39:22;1.37;;;1.27;;
4553;SDS011;2289;48.316;15.174;2023-04-24T08:41:51;1.37;;;1.03;;
4553;SDS011;2289;48.316;15.174;2023-04-24T08:44:22;5.53;;;1.90;;
4553;SDS011;2289;48.316;15.174;2023-04-24T08:46:51;5.27;;;3.80;;
4553;SDS011;2289;48.316;15.174;2023-04-24T08:49:21;5.73;;;3.20;;
4553;SDS011;2289;48.316;15.174;2023-04-24T08:51:52;3.20;;;2.73;;
4553;SDS011;2289;48.316;15.174;2023-04-24T08:54:21;2.60;;;2.40;;
4553;SDS011;2289;48.316;15.174;2023-04-24T08:56:51;2.10;;;1.90;;
4553;SDS011;2289;48.316;15.174;2023-04-24T08:59:23;4.23;;;2.40;;
4553;SDS011;2289;48.316;15.174;2023-04-24T09:01:53;2.40;;;2.20;;
4553;SDS011;2289;48.316;15.174;2023-04-24T09:04:23;3.00;;;1.10;;
4553;SDS011;2289;48.316;15.174;2023-04-24T09:06:55;1.27;;;1.17;;
4553;SDS011;2289;48.316;15.174;2023-04-24T09:09:24;2.43;;;2.00;;
4553;SDS011;2289;48.316;15.174;2023-04-24T09:11:54;3.73;;;3.53;;
4553;SDS011;2289;48.316;15.174;2023-04-24T09:14:24;2.13;;;1.80;;
4553;SDS011;2289;48.316;15.174;2023-04-24T09:16:53;2.37;;;1.40;;
4553;SDS011;2289;48.316;15.174;2023-04-24T09:19:22;3.47;;;2.50;;
4553;SDS011;2289;48.316;15.174;2023-04-24T09:21:51;3.43;;;3.13;;
4553;SDS011;2289;48.316;15.174;2023-04-24T09:24:21;3.97;;;3.63;;
4553;SDS011;2289;48.316;15.174;2023-04-24T09:26:55;3.40;;;3.10;;
4553;SDS011;2289;48.316;15.174;2023-04-24T09:29:30;7.70;;;5.40;;
4553;SDS011;2289;48.316;15.174;2023-04-24T09:31:59;6.67;;;3.47;;
4553;SDS011;2289;48.316;15.174;2023-04-24T09:34:47;1.90;;;1.77;;
4553;SDS011;2289;48.316;15.174;2023-04-24T09:37:27;2.07;;;1.20;;
4553;SDS011;2289;48.316;15.174;2023-04-24T09:40:10;1.20;;;1.10;;
4553;SDS011;2289;48.316;15.174;2023-04-24T09:42:41;1.30;;;1.10;;
4553;SDS011;2289;48.316;15.174;2023-04-24T09:45:13;6.83;;;1.10;;
4553;SDS011;2289;48.316;15.174;2023-04-24T09:47:43;2.23;;;1.03;;
4553;SDS011;2289;48.316;15.174;2023-04-24T09:50:13;2.77;;;1.90;;
4553;SDS011;2289;48.316;15.174;2023-04-24T09:52:44;2.17;;;1.97;;
4553;SDS011;2289;48.316;15.174;2023-04-24T09:55:15;0.97;;;0.97;;
4553;SDS011;2289;48.316;15.174;2023-04-24T09:57:52;2.50;;;1.33;;
4553;SDS011;2289;48.316;15.174;2023-04-24T10:00:25;1.20;;;1.00;;
4553;SDS011;2289;48.316;15.174;2023-04-24T10:02:55;0.70;;;0.70;;
4553;SDS011;2289;48.316;15.174;2023-04-24T10:05:29;1.03;;;0.93;;
4553;SDS011;2289;48.316;15.174;2023-04-24T10:08:05;1.00;;;0.87;;
4553;SDS011;2289;48.316;15.174;2023-04-24T10:10:35;3.23;;;1.50;;
4553;SDS011;2289;48.316;15.174;2023-04-24T10:13:07;1.00;;;0.70;;
4553;SDS011;2289;48.316;15.174;2023-04-24T10:15:37;2.70;;;1.80;;
4553;SDS011;2289;48.316;15.174;2023-04-24T10:18:07;1.00;;;0.90;;
4553;SDS011;2289;48.316;15.174;2023-04-24T10:20:37;0.90;;;0.60;;
4553;SDS011;2289;48.316;15.174;2023-04-24T10:23:07;0.83;;;0.83;;
4553;SDS011;2289;48.316;15.174;2023-04-24T10:25:36;0.80;;;0.80;;
4553;SDS011;2289;48.316;15.174;2023-04-24T10:28:05;1.03;;;0.60;;
4553;SDS011;2289;48.316;15.174;2023-04-24T10:30:38;0.70;;;0.67;;
4553;SDS011;2289;48.316;15.174;2023-04-24T10:33:07;0.60;;;0.60;;
4553;SDS011;2289;48.316;15.174;2023-04-24T10:35:37;0.80;;;0.60;;
4553;SDS011;2289;48.316;15.174;2023-04-24T10:38:11;2.70;;;1.60;;
4553;SDS011;2289;48.316;15.174;2023-04-24T10:40:41;3.60;;;2.67;;
4553;SDS011;2289;48.316;15.174;2023-04-24T10:43:11;5.27;;;2.90;;
4553;SDS011;2289;48.316;15.174;2023-04-24T10:48:31;3.50;;;1.27;;
4553;SDS011;2289;48.316;15.174;2023-04-24T10:51:01;2.63;;;1.40;;
4553;SDS011;2289;48.316;15.174;2023-04-24T10:53:30;1.90;;;1.23;;
4553;SDS011;2289;48.316;15.174;2023-04-24T10:56:03;2.40;;;2.10;;
4553;SDS011;2289;48.316;15.174;2023-04-24T10:58:36;2.13;;;1.30;;
4553;SDS011;2289;48.316;15.174;2023-04-24T11:01:08;4.30;;;0.90;;
4553;SDS011;2289;48.316;15.174;2023-04-24T11:03:37;1.10;;;0.90;;
4553;SDS011;2289;48.316;15.174;2023-04-24T11:06:10;1.90;;;1.33;;
4553;SDS011;2289;48.316;15.174;2023-04-24T11:08:42;1.63;;;1.07;;
4553;SDS011;2289;48.316;15.174;2023-04-24T11:11:12;2.90;;;0.70;;
4553;SDS011;2289;48.316;15.174;2023-04-24T11:14:01;1.40;;;1.20;;
4553;SDS011;2289;48.316;15.174;2023-04-24T11:16:43;12.40;;;8.30;;
4553;SDS011;2289;48.316;15.174;2023-04-24T11:19:18;8.40;;;4.17;;
4553;SDS011;2289;48.316;15.174;2023-04-24T11:21:54;1.33;;;1.23;;
4553;SDS011;2289;48.316;15.174;2023-04-24T11:24:27;2.03;;;1.20;;
4553;SDS011;2289;48.316;15.174;2023-04-24T11:26:58;1.10;;;0.90;;
4553;SDS011;2289;48.316;15.174;2023-04-24T11:29:40;1.80;;;1.70;;
4553;SDS011;2289;48.316;15.174;2023-04-24T11:32:19;1.40;;;1.30;;
4553;SDS011;2289;48.316;15.174;2023-04-24T11:34:54;2.10;;;2.00;;
4553;SDS011;2289;48.316;15.174;2023-04-24T11:37:26;5.17;;;4.10;;
4553;SDS011;2289;48.316;15.174;2023-04-24T11:39:57;19.83;;;12.97;;
4553;SDS011;2289;48.316;15.174;2023-04-24T11:42:27;6.87;;;4.30;;
4553;SDS011;2289;48.316;15.174;2023-04-24T11:44:57;3.13;;;2.50;;
4553;SDS011;2289;48.316;15.174;2023-04-24T11:47:30;2.03;;;1.77;;
4553;SDS011;2289;48.316;15.174;2023-04-24T11:50:00;2.30;;;1.93;;
4553;SDS011;2289;48.316;15.174;2023-04-24T11:52:30;1.90;;;1.80;;
4553;SDS011;2289;48.316;15.174;2023-04-24T11:54:59;3.40;;;2.30;;
4553;SDS011;2289;48.316;15.174;2023-04-24T11:57:29;1.53;;;1.37;;
4553;SDS011;2289;48.316;15.174;2023-04-24T12:00:00;3.83;;;1.70;;
4553;SDS011;2289;48.316;15.174;2023-04-24T12:02:33;4.30;;;1.63;;
4553;SDS011;2289;48.316;15.174;2023-04-24T12:05:05;2.83;;;1.10;;
4553;SDS011;2289;48.316;15.174;2023-04-24T12:07:39;1.47;;;0.87;;
4553;SDS011;2289;48.316;15.174;2023-04-24T12:10:09;2.00;;;1.80;;
4553;SDS011;2289;48.316;15.174;2023-04-24T12:12:38;2.43;;;1.70;;
4553;SDS011;2289;48.316;15.174;2023-04-24T12:15:07;1.53;;;1.27;;
4553;SDS011;2289;48.316;15.174;2023-04-24T12:17:40;52.90;;;28.63;;
4553;SDS011;2289;48.316;15.174;2023-04-24T12:20:10;15.40;;;8.73;;
4553;SDS011;2289;48.316;15.174;2023-04-24T12:22:45;2.87;;;1.23;;
4553;SDS011;2289;48.316;15.174;2023-04-24T12:25:15;1.03;;;0.90;;
4553;SDS011;2289;48.316;15.174;2023-04-24T12:27:45;0.80;;;0.80;;
4553;SDS011;2289;48.316;15.174;2023-04-24T12:30:16;1.00;;;0.80;;
4553;SDS011;2289;48.316;15.174;2023-04-24T12:32:47;0.93;;;0.70;;
4553;SDS011;2289;48.316;15.174;2023-04-24T12:35:18;0.60;;;0.60;;
4553;SDS011;2289;48.316;15.174;2023-04-24T12:37:48;1.53;;;0.90;;
4553;SDS011;2289;48.316;15.174;2023-04-24T12:40:20;1.00;;;0.80;;
4553;SDS011;2289;48.316;15.174;2023-04-24T12:42:50;2.30;;;1.03;;
4553;SDS011;2289;48.316;15.174;2023-04-24T12:45:21;1.10;;;0.80;;
4553;SDS011;2289;48.316;15.174;2023-04-24T12:47:53;2.50;;;1.60;;
4553;SDS011;2289;48.316;15.174;2023-04-24T12:50:22;1.40;;;1.30;;
4553;SDS011;2289;48.316;15.174;2023-04-24T12:52:51;1.20;;;0.90;;
4553;SDS011;2289;48.316;15.174;2023-04-24T12:55:20;2.30;;;2.00;;
4553;SDS011;2289;48.316;15.174;2023-04-24T12:57:48;7.83;;;7.23;;
4553;SDS011;2289;48.316;15.174;2023-04-24T13:00:18;2.80;;;1.60;;
4553;SDS011;2289;48.316;15.174;2023-04-24T13:02:46;1.60;;;1.40;;
4553;SDS011;2289;48.316;15.174;2023-04-24T13:05:17;1.57;;;1.40;;
4553;SDS011;2289;48.316;15.174;2023-04-24T13:07:50;3.43;;;1.00;;
4553;SDS011;2289;48.316;15.174;2023-04-24T13:10:20;2.00;;;1.47;;
4553;SDS011;2289;48.316;15.174;2023-04-24T13:12:49;1.37;;;1.27;;
4553;SDS011;2289;48.316;15.174;2023-04-24T13:15:18;2.70;;;1.60;;
4553;SDS011;2289;48.316;15.174;2023-04-24T13:17:47;1.30;;;1.20;;
4553;SDS011;2289;48.316;15.174;2023-04-24T13:20:18;3.67;;;2.50;;
4553;SDS011;2289;48.316;15.174;2023-04-24T13:22:46;1.17;;;1.10;;
4553;SDS011;2289;48.316;15.174;2023-04-24T13:25:15;1.23;;;1.00;;
4553;SDS011;2289;48.316;15.174;2023-04-24T13:27:45;1.00;;;1.00;;
4553;SDS011;2289;48.316;15.174;2023-04-24T13:30:14;1.73;;;0.77;;
4553;SDS011;2289;48.316;15.174;2023-04-24T13:32:43;1.10;;;1.00;;
4553;SDS011;2289;48.316;15.174;2023-04-24T13:35:12;1.10;;;0.90;;
4553;SDS011;2289;48.316;15.174;2023-04-24T13:37:45;0.80;;;0.70;;
4553;SDS011;2289;48.316;15.174;2023-04-24T13:40:14;6.63;;;1.03;;
4553;SDS011;2289;48.316;15.174;2023-04-24T13:42:42;1.10;;;1.00;;
4553;SDS011;2289;48.316;15.174;2023-04-24T13:45:11;0.70;;;0.70;;
4553;SDS011;2289;48.316;15.174;2023-04-24T13:47:51;0.80;;;0.60;;
4553;SDS011;2289;48.316;15.174;2023-04-24T13:50:21;1.33;;;0.73;;
4553;SDS011;2289;48.316;15.174;2023-04-24T13:52:52;0.80;;;0.70;;
4553;SDS011;2289;48.316;15.174;2023-04-24T13:55:21;1.20;;;0.90;;
4553;SDS011;2289;48.316;15.174;2023-04-24T13:57:53;0.73;;;0.70;;
4553;SDS011;2289;48.316;15.174;2023-04-24T14:00:22;1.57;;;1.10;;
4553;SDS011;2289;48.316;15.174;2023-04-24T14:02:52;1.27;;;1.10;;
4553;SDS011;2289;48.316;15.174;2023-04-24T14:05:20;2.10;;;1.63;;
4553;SDS011;2289;48.316;15.174;2023-04-24T14:07:52;1.77;;;1.13;;
4553;SDS011;2289;48.316;15.174;2023-04-24T14:10:20;1.50;;;1.23;;
4553;SDS011;2289;48.316;15.174;2023-04-24T14:12:50;0.80;;;0.80;;
4553;SDS011;2289;48.316;15.174;2023-04-24T14:15:22;0.60;;;0.60;;
4553;SDS011;2289;48.316;15.174;2023-04-24T14:17:51;0.60;;;0.60;;
4553;SDS011;2289;48.316;15.174;2023-04-24T14:20:20;0.67;;;0.67;;
4553;SDS011;2289;48.316;15.174;2023-04-24T14:22:49;0.83;;;0.73;;
4553;SDS011;2289;48.316;15.174;2023-04-24T14:25:19;0.73;;;0.73;;
4553;SDS011;2289;48.316;15.174;2023-04-24T14:27:49;0.80;;;0.60;;
4553;SDS011;2289;48.316;15.174;2023-04-24T14:30:20;0.67;;;0.63;;
4553;SDS011;2289;48.316;15.174;2023-04-24T14:32:49;0.60;;;0.50;;
4553;SDS011;2289;48.316;15.174;2023-04-24T14:35:21;2.60;;;0.60;;
4553;SDS011;2289;48.316;15.174;2023-04-24T14:37:50;1.93;;;1.83;;
4553;SDS011;2289;48.316;15.174;2023-04-24T14:40:20;1.27;;;0.97;;
4553;SDS011;2289;48.316;15.174;2023-04-24T14:43:09;6.80;;;4.20;;
4553;SDS011;2289;48.316;15.174;2023-04-24T14:45:38;1.77;;;1.07;;
4553;SDS011;2289;48.316;15.174;2023-04-24T14:48:08;1.20;;;1.10;;
4553;SDS011;2289;48.316;15.174;2023-04-24T14:50:38;3.97;;;3.57;;
4553;SDS011;2289;48.316;15.174;2023-04-24T14:53:07;2.83;;;2.13;;
4553;SDS011;2289;48.316;15.174;2023-04-24T14:55:37;1.90;;;1.67;;
4553;SDS011;2289;48.316;15.174;2023-04-24T14:58:05;2.50;;;0.90;;
4553;SDS011;2289;48.316;15.174;2023-04-24T15:00:34;1.10;;;1.00;;
4553;SDS011;2289;48.316;15.174;2023-04-24T15:03:03;1.80;;;1.30;;
4553;SDS011;2289;48.316;15.174;2023-04-24T15:05:32;2.30;;;0.90;;
4553;SDS011;2289;48.316;15.174;2023-04-24T15:08:02;3.30;;;1.80;;
4553;SDS011;2289;48.316;15.174;2023-04-24T15:10:30;0.90;;;0.90;;
4553;SDS011;2289;48.316;15.174;2023-04-24T15:13:01;4.30;;;2.03;;
4553;SDS011;2289;48.316;15.174;2023-04-24T15:15:30;4.93;;;1.90;;
4553;SDS011;2289;48.316;15.174;2023-04-24T15:17:59;6.63;;;5.67;;